createdAt,value
2023-10-04T00:01:03.291Z,3.58
2023-10-04T00:06:06.040Z,3.15
2023-10-04T00:11:15.644Z,3.83
2023-10-04T00:16:19.526Z,3.53
2023-10-04T00:21:23.203Z,3.45
2023-10-04T00:26:26.290Z,3.20
2023-10-04T00:31:30.056Z,2.95
2023-10-04T00:36:33.199Z,3.25
2023-10-04T00:41:36.728Z,3.97
2023-10-04T00:46:43.485Z,3.55
2023-10-04T00:51:47.714Z,3.70
2023-10-04T00:56:53.088Z,4.05
2023-10-04T01:01:56.029Z,4.03
2023-10-04T01:23:06.082Z,3.80
2023-10-04T01:28:14.107Z,3.78
2023-10-04T01:33:17.534Z,3.90
2023-10-04T01:38:33.704Z,3.67
2023-10-04T01:43:36.736Z,3.58
2023-10-04T01:48:41.482Z,3.92
2023-10-04T01:53:44.261Z,4.35
2023-10-04T01:58:50.132Z,4.30
2023-10-04T02:03:55.211Z,3.80
2023-10-04T02:08:58.577Z,4.20
2023-10-04T02:14:01.544Z,4.63
2023-10-04T02:19:05.021Z,5.65
2023-10-04T02:24:11.250Z,4.13
2023-10-04T02:29:14.425Z,4.28
2023-10-04T02:34:20.661Z,4.72
2023-10-04T02:39:25.700Z,5.47
2023-10-04T02:44:28.800Z,4.90
2023-10-04T02:49:31.670Z,5.50
2023-10-04T02:54:35.102Z,4.53
2023-10-04T02:59:37.916Z,4.40
2023-10-04T03:04:42.677Z,3.30
2023-10-04T03:09:45.458Z,4.45
2023-10-04T03:14:48.309Z,4.30
2023-10-04T03:19:53.117Z,4.25
2023-10-04T03:24:56.016Z,4.20
2023-10-04T03:30:00.129Z,3.55
2023-10-04T03:35:09.030Z,3.70
2023-10-04T03:40:16.386Z,4.28
2023-10-04T03:45:21.995Z,3.97
2023-10-04T03:50:25.804Z,3.63
2023-10-04T03:55:28.619Z,3.80
2023-10-04T04:00:33.807Z,3.83
2023-10-04T04:05:43.116Z,4.13
2023-10-04T04:10:47.672Z,4.13
2023-10-04T04:15:50.543Z,3.88
2023-10-04T04:20:55.646Z,4.03
2023-10-04T04:26:08.104Z,3.78
2023-10-04T04:31:22.120Z,4.30
2023-10-04T04:36:29.315Z,4.15
2023-10-04T04:41:39.895Z,5.38
2023-10-04T04:51:48.738Z,4.82
2023-10-04T04:56:51.629Z,4.18
2023-10-04T05:01:57.280Z,4.55
2023-10-04T05:07:00.437Z,4.53
2023-10-04T05:12:03.182Z,5.10
2023-10-04T05:17:05.928Z,5.03
2023-10-04T05:22:08.840Z,5.13
2023-10-04T05:27:11.727Z,5.10
2023-10-04T05:32:14.626Z,6.03
2023-10-04T05:37:17.425Z,5.88
2023-10-04T05:42:20.122Z,5.90
2023-10-04T05:47:22.788Z,5.63
2023-10-04T05:52:25.616Z,6.00
2023-10-04T05:57:30.014Z,6.70
2023-10-04T06:02:33.631Z,6.10
2023-10-04T06:07:36.774Z,5.80
2023-10-04T06:12:41.210Z,6.05
2023-10-04T06:17:47.472Z,7.93
2023-10-04T06:22:51.147Z,7.75
2023-10-04T06:27:55.649Z,6.15
2023-10-04T06:33:01.240Z,5.82
2023-10-04T06:38:08.013Z,5.50
2023-10-04T06:43:11.513Z,5.72
2023-10-04T06:48:15.702Z,5.65
2023-10-04T06:53:18.784Z,6.85
2023-10-04T06:58:22.785Z,5.22
2023-10-04T07:03:28.012Z,5.00
2023-10-04T07:08:36.946Z,5.10
2023-10-04T07:13:40.827Z,4.78
2023-10-04T07:18:43.948Z,4.70
2023-10-04T07:23:47.652Z,5.43
2023-10-04T07:28:50.742Z,5.65
2023-10-04T07:33:53.645Z,5.78
2023-10-04T07:38:56.666Z,5.15
2023-10-04T07:43:59.496Z,4.97
2023-10-04T07:49:03.203Z,4.82
2023-10-04T07:59:11.865Z,4.93
2023-10-04T08:04:14.818Z,6.25
2023-10-04T08:09:17.881Z,5.80
2023-10-04T08:14:22.640Z,9.23
2023-10-04T08:19:25.474Z,8.30
2023-10-04T08:24:28.513Z,7.07
2023-10-04T08:29:35.572Z,7.45
2023-10-04T08:34:38.767Z,7.22
2023-10-04T08:39:42.036Z,5.68
2023-10-04T08:44:45.049Z,5.07
2023-10-04T08:49:56.861Z,5.90
2023-10-04T08:55:09.433Z,5.15
2023-10-04T09:00:28.972Z,5.13
2023-10-04T09:05:34.878Z,5.10
2023-10-04T09:10:40.654Z,3.80
2023-10-04T09:15:43.553Z,4.57
2023-10-04T09:20:46.977Z,5.03
2023-10-04T09:25:54.555Z,3.85
2023-10-04T09:31:10.261Z,3.83
2023-10-04T09:36:36.383Z,4.60
2023-10-04T09:41:49.399Z,3.70
2023-10-04T09:46:58.583Z,3.50
2023-10-04T09:52:02.722Z,3.78
2023-10-04T09:57:11.438Z,3.58
2023-10-04T10:02:17.067Z,3.80
2023-10-04T10:07:26.925Z,3.38
2023-10-04T10:12:33.543Z,3.88
2023-10-04T10:17:37.184Z,4.50
2023-10-04T10:23:01.835Z,3.42
2023-10-04T10:28:06.173Z,4.18
2023-10-04T10:33:08.885Z,4.20
2023-10-04T10:38:30.691Z,4.85
2023-10-04T10:48:39.950Z,4.60
2023-10-04T10:53:42.795Z,4.68
2023-10-04T10:58:50.173Z,4.82
2023-10-04T11:03:52.879Z,4.13
2023-10-04T11:08:57.208Z,4.28
2023-10-04T11:14:00.837Z,5.70
2023-10-04T11:19:05.111Z,4.20
2023-10-04T11:24:11.164Z,4.88
2023-10-04T11:29:14.611Z,4.93
2023-10-04T11:34:18.626Z,4.88
2023-10-04T11:39:24.214Z,4.80
2023-10-04T11:44:27.177Z,4.05
2023-10-04T11:49:33.852Z,4.00
2023-10-04T11:54:45.806Z,4.35
2023-10-04T11:59:48.511Z,3.63
2023-10-04T12:04:51.525Z,3.53
2023-10-04T12:09:54.333Z,3.60
2023-10-04T12:14:57.176Z,3.05
2023-10-04T12:20:00.185Z,3.20
2023-10-04T12:25:03.109Z,3.47
2023-10-04T12:35:12.312Z,3.30
2023-10-04T12:40:25.292Z,3.67
2023-10-04T12:45:33.318Z,3.60
2023-10-04T12:50:36.767Z,4.53
2023-10-04T12:55:39.625Z,3.10
2023-10-04T13:00:45.656Z,4.03
2023-10-04T13:05:48.704Z,3.42
2023-10-04T13:10:51.451Z,4.43
2023-10-04T13:15:54.740Z,3.97
2023-10-04T13:20:57.597Z,3.38
2023-10-04T13:26:00.389Z,4.45
2023-10-04T13:31:04.466Z,4.43
2023-10-04T13:36:07.331Z,5.63
2023-10-04T13:41:16.520Z,6.57
2023-10-04T13:46:19.694Z,5.32
2023-10-04T13:51:25.936Z,5.70
2023-10-04T13:56:28.939Z,5.28
2023-10-04T14:01:31.945Z,5.38
2023-10-04T14:06:34.910Z,7.38
2023-10-04T14:11:37.667Z,9.57
2023-10-04T14:16:43.621Z,7.82
2023-10-04T14:21:46.545Z,13.80
2023-10-04T14:26:53.582Z,12.07
2023-10-04T14:31:56.488Z,11.57
2023-10-04T14:36:59.397Z,9.68
2023-10-04T14:42:06.395Z,8.88
2023-10-04T14:47:09.629Z,8.68
2023-10-04T14:52:13.614Z,7.85
2023-10-04T14:57:16.485Z,7.47
2023-10-04T15:02:20.028Z,7.53
2023-10-04T15:07:23.087Z,6.93
2023-10-04T15:12:25.898Z,10.10
2023-10-04T15:17:28.725Z,7.68
2023-10-04T15:22:37.497Z,11.35
2023-10-04T15:28:07.460Z,9.32
2023-10-04T15:33:10.505Z,8.60
2023-10-04T15:38:13.499Z,10.50
2023-10-04T15:43:18.775Z,11.27
2023-10-04T15:48:21.696Z,11.35
2023-10-04T15:53:25.930Z,13.00
2023-10-04T15:58:28.976Z,11.90
2023-10-04T16:03:32.694Z,10.55
2023-10-04T16:08:36.521Z,11.23
2023-10-04T16:13:39.329Z,10.98
2023-10-04T16:18:42.507Z,11.75
2023-10-04T16:23:45.508Z,11.82
2023-10-04T16:28:48.667Z,12.63
2023-10-04T16:33:51.749Z,13.88
2023-10-04T16:38:54.649Z,15.63
2023-10-04T16:43:57.342Z,16.17
2023-10-04T16:49:00.301Z,17.52
2023-10-04T16:54:04.437Z,18.08
2023-10-04T16:59:07.810Z,16.42
2023-10-04T17:04:11.313Z,13.30
2023-10-04T17:09:14.251Z,13.90
2023-10-04T17:14:17.129Z,12.68
2023-10-04T17:19:20.611Z,11.95
2023-10-04T17:24:23.529Z,10.25
2023-10-04T17:29:26.540Z,9.98
2023-10-04T17:34:29.441Z,9.15
2023-10-04T17:39:32.724Z,8.95
2023-10-04T17:44:35.604Z,10.45
2023-10-04T17:49:38.610Z,9.68
2023-10-04T17:54:41.672Z,9.73
2023-10-04T17:59:44.682Z,13.55
2023-10-04T18:04:47.754Z,14.50
2023-10-04T18:09:50.606Z,13.88
2023-10-04T18:14:53.659Z,14.23
2023-10-04T18:19:57.109Z,16.95
2023-10-04T18:24:59.964Z,13.18
2023-10-04T18:30:02.912Z,22.98
2023-10-04T18:35:06.830Z,18.05
2023-10-04T18:40:11.211Z,15.68
2023-10-04T18:45:14.381Z,12.48
2023-10-04T18:50:18.910Z,10.30
2023-10-04T18:55:21.897Z,9.07
2023-10-04T19:00:26.567Z,9.60
2023-10-04T19:05:30.035Z,8.70
2023-10-04T19:10:32.698Z,8.32
2023-10-04T19:15:35.742Z,7.30
2023-10-04T19:20:38.898Z,7.90
2023-10-04T19:25:41.710Z,7.15
2023-10-04T19:30:44.988Z,6.90
2023-10-04T19:35:47.873Z,6.68
2023-10-04T19:40:52.336Z,6.95
2023-10-04T19:45:55.817Z,6.25
2023-10-04T19:50:58.767Z,6.85
2023-10-04T19:56:01.631Z,6.78
2023-10-04T20:01:04.748Z,6.35
2023-10-04T20:06:11.079Z,6.13
2023-10-04T20:11:14.020Z,6.95
2023-10-04T20:16:18.106Z,6.72
2023-10-04T20:21:20.964Z,6.80
2023-10-04T20:26:24.030Z,5.93
2023-10-04T20:31:26.950Z,4.75
2023-10-04T20:36:29.888Z,5.75
2023-10-04T20:41:33.441Z,5.10
2023-10-04T20:46:36.546Z,6.03
2023-10-04T20:51:39.895Z,4.78
2023-10-04T20:56:43.029Z,4.55
2023-10-04T21:01:45.858Z,5.05
2023-10-04T21:06:48.742Z,4.50
2023-10-04T21:11:51.969Z,4.82
2023-10-04T21:16:55.032Z,4.15
2023-10-04T21:21:58.192Z,5.30
2023-10-04T21:27:02.853Z,4.95
2023-10-04T21:32:06.036Z,5.25
2023-10-04T21:37:11.683Z,5.55
2023-10-04T21:42:16.942Z,4.25
2023-10-04T21:47:28.448Z,4.90
2023-10-04T21:52:33.074Z,3.78
2023-10-04T21:57:35.812Z,5.07
2023-10-04T22:02:38.636Z,4.00
2023-10-04T22:07:43.862Z,4.38
2023-10-04T22:12:47.270Z,4.65
2023-10-04T22:17:51.198Z,4.47
2023-10-04T22:22:54.234Z,5.15
2023-10-04T22:27:56.898Z,4.43
2023-10-04T22:32:59.741Z,4.13
2023-10-04T22:38:03.047Z,4.15
2023-10-04T22:43:09.184Z,4.18
2023-10-04T22:48:11.995Z,4.80
2023-10-04T22:53:15.678Z,5.07
2023-10-04T22:58:18.511Z,4.75
2023-10-04T23:08:46.701Z,4.75
2023-10-04T23:13:52.476Z,3.88
2023-10-04T23:18:55.357Z,4.35
2023-10-04T23:24:10.390Z,4.32
2023-10-04T23:29:14.844Z,4.28
2023-10-04T23:34:19.065Z,4.88
2023-10-04T23:39:30.858Z,5.10
2023-10-04T23:44:33.885Z,4.75
2023-10-04T23:49:40.157Z,4.70
2023-10-04T23:54:46.569Z,4.97
2023-10-04T23:59:52.448Z,5.07
